Bow Clipper — LAUU4 — position and weather

sailwx.info

Track history (hours):
 
Tides and Currents Weather Stations Pressure Air Temp Water Temp Dewpoint Dewpoint Depression Visibility Wind Speed Wind Dir Waves Ship Positions

Bow Clipper

Last reported at 2015-Feb-01 20:08 UTC. Time now 2015-Feb-02 00:21 UTC.
Position N 29°23' W 094°49'.

Length 188 m; draft 6.1 m.

Type: Ship (hazmat cat B). MMSI: 258946991.

Date/timePositionNaut miles runAvg speedWind from/ knotsBaromVisibWave heightAir tempDewpointWater temp
2015-Feb-01 20:08N 29°23' W 094°49'611.1
2015-Feb-01 19:33N 29°29' W 094°52'1111.2
2015-Feb-01 18:34N 29°38' W 094°58'7 7.4
2015-Feb-01 17:33N 29°44' W 095°03'2 1.5
2015-Feb-01 16:07N 29°45' W 095°06'0 0.0
2015-Feb-01 15:16N 29°45' W 095°06'0 0.0
2015-Jan-31 17:10N 29°45' W 095°06'0 0.0
2015-Jan-31 16:23N 29°45' W 095°06'0 0.0
2015-Jan-31 15:32N 29°45' W 095°06'0 0.0
2015-Jan-31 14:08N 29°45' W 095°06'0 0.0
2015-Jan-31 13:24N 29°45' W 095°06'0 0.0
2015-Jan-31 12:30N 29°45' W 095°06'0 0.0
2015-Jan-31 11:33N 29°45' W 095°06'0 0.0
2015-Jan-31 10:31N 29°45' W 095°06'0 0.0
2015-Jan-31 09:27N 29°45' W 095°06'0 0.0
2015-Jan-31 08:06N 29°45' W 095°06'0 0.0
2015-Jan-31 07:31N 29°45' W 095°06'0 0.0
2015-Jan-31 06:31N 29°45' W 095°06'0 0.0
2015-Jan-31 05:33N 29°45' W 095°06'2 2.0
2015-Jan-31 04:33N 29°44' W 095°08'0 0.0
2015-Jan-31 03:33N 29°44' W 095°08'0 0.0
2015-Jan-31 02:32N 29°44' W 095°08'0 0.0
2015-Jan-31 01:32N 29°44' W 095°08'0 0.0
2015-Jan-31 00:30N 29°44' W 095°08'0 0.0
2015-Jan-30 23:32N 29°44' W 095°08'0 0.0
2015-Jan-30 22:25N 29°44' W 095°08'0 0.0
2015-Jan-30 21:32N 29°44' W 095°08'0 0.0
2015-Jan-30 20:19N 29°44' W 095°08'0 0.0
2015-Jan-30 19:25N 29°44' W 095°08'0 0.0
2015-Jan-30 18:10N 29°44' W 095°08'0 0.0
2015-Jan-30 17:08N 29°44' W 095°08'0 0.0
2015-Jan-30 16:32N 29°44' W 095°08'0 0.0
2015-Jan-30 15:32N 29°44' W 095°08'0 0.0
2015-Jan-30 14:29N 29°44' W 095°08'0 0.0
2015-Jan-30 13:31N 29°44' W 095°08'0 0.0
2015-Jan-30 12:24N 29°44' W 095°08'0 0.0
2015-Jan-30 11:06N 29°44' W 095°08'0 0.1
2015-Jan-30 07:33N 29°44' W 095°08'5 5.3
2015-Jan-30 06:33N 29°44' W 095°01'9 9.1
2015-Jan-30 05:33N 29°36' W 094°57'1313.0
2015-Jan-30 04:33N 29°24' W 094°49'14 0.8
2015-Jan-29 12:08N 29°19' W 094°35'0 0.0
2015-Jan-29 11:32N 29°19' W 094°35'0 0.0
2015-Jan-29 10:17N 29°19' W 094°35'0 0.0
2015-Jan-29 09:33N 29°19' W 094°35'0 0.0
2015-Jan-29 07:28N 29°19' W 094°35'0 0.0
2015-Jan-29 06:30N 29°19' W 094°35'0 0.0
2015-Jan-29 05:30N 29°19' W 094°35'0 0.0
2015-Jan-29 04:23N 29°19' W 094°35'0 0.0
2015-Jan-29 03:32N 29°19' W 094°35'0 0.0
2015-Jan-29 01:33N 29°19' W 094°35'0 0.0
2015-Jan-29 00:25N 29°19' W 094°35'0 0.0
2015-Jan-28 23:19N 29°19' W 094°35'0 0.0
2015-Jan-28 22:14N 29°19' W 094°35'0 0.0
2015-Jan-28 19:18N 29°19' W 094°35'0 0.0
2015-Jan-28 18:32N 29°19' W 094°35'0 0.0
2015-Jan-28 17:15N 29°19' W 094°35'0 0.0
2015-Jan-28 15:24N 29°19' W 094°35'0 0.0
2015-Jan-28 14:29N 29°19' W 094°35'0 0.0
2015-Jan-28 13:30N 29°19' W 094°35'0 0.0
2015-Jan-27 14:31N 29°19' W 094°34'1 0.2
2015-Jan-27 09:25N 29°18' W 094°35'1212.6
2015-Jan-27 08:26N 29°23' W 094°48'1213.3
2015-Jan-27 07:33N 29°33' W 094°55'7 6.8
2015-Jan-27 06:33N 29°37' W 095°01'0 0.0
2015-Jan-27 05:32N 29°37' W 095°01'0 0.0
2015-Jan-27 04:31N 29°37' W 095°01'0 0.0
2015-Jan-27 03:31N 29°37' W 095°01'0 0.0
2015-Jan-27 02:32N 29°37' W 095°01'0 0.0
2015-Jan-27 01:33N 29°37' W 095°01'0 0.0
2015-Jan-27 00:33N 29°37' W 095°01'0 0.0
2015-Jan-26 23:33N 29°37' W 095°01'0 0.0
2015-Jan-26 22:32N 29°37' W 095°01'0 0.0
2015-Jan-26 21:32N 29°37' W 095°01'0 0.0
2015-Jan-26 20:32N 29°37' W 095°01'0 0.0
2015-Jan-26 19:32N 29°37' W 095°01'0 0.0
2015-Jan-26 18:31N 29°37' W 095°01'0 0.0
2015-Jan-26 17:33N 29°37' W 095°01'0 0.0
2015-Jan-26 16:33N 29°37' W 095°01'0 0.0
2015-Jan-26 15:33N 29°37' W 095°01'0 0.0
2015-Jan-26 14:33N 29°37' W 095°01'0 0.0
2015-Jan-26 13:30N 29°37' W 095°01'0 0.0
2015-Jan-26 12:33N 29°37' W 095°01'0 0.0
2015-Jan-26 11:33N 29°37' W 095°01'4 4.4
2015-Jan-26 10:33N 29°35' W 094°56'1111.3
2015-Jan-26 09:33N 29°26' W 094°50'10 0.3
2015-Jan-24 21:25N 29°20' W 094°40'1113.0
2015-Jan-24 20:33N 29°27' W 094°51'1313.3
2015-Jan-24 19:33N 29°38' W 094°58'10 9.5
2015-Jan-24 18:33N 29°46' W 095°05'1 1.4
2015-Jan-24 17:32N 29°45' W 095°06'  
Track history (hours):
 
Tides and Currents Weather Stations Pressure Air Temp Water Temp Dewpoint Dewpoint Depression Visibility Wind Speed Wind Dir Waves Ship Positions

Bow Clipper

Last reported at 2015-Feb-01 20:08 UTC. Time now 2015-Feb-02 00:21 UTC.
Position N 29°23' W 094°49'.

Length 188 m; draft 6.1 m.

Type: Ship (hazmat cat B). MMSI: 258946991.

Date/timePositionNaut miles runAvg speedWind from/ knotsBaromVisibWave heightAir tempDewpointWater temp
2015-Feb-01 20:08N 29°23' W 094°49'611.1
2015-Feb-01 19:33N 29°29' W 094°52'1111.2
2015-Feb-01 18:34N 29°38' W 094°58'7 7.4
2015-Feb-01 17:33N 29°44' W 095°03'2 1.5
2015-Feb-01 16:07N 29°45' W 095°06'0 0.0
2015-Feb-01 15:16N 29°45' W 095°06'0 0.0
2015-Jan-31 17:10N 29°45' W 095°06'0 0.0
2015-Jan-31 16:23N 29°45' W 095°06'0 0.0
2015-Jan-31 15:32N 29°45' W 095°06'0 0.0
2015-Jan-31 14:08N 29°45' W 095°06'0 0.0
2015-Jan-31 13:24N 29°45' W 095°06'0 0.0
2015-Jan-31 12:30N 29°45' W 095°06'0 0.0
2015-Jan-31 11:33N 29°45' W 095°06'0 0.0
2015-Jan-31 10:31N 29°45' W 095°06'0 0.0
2015-Jan-31 09:27N 29°45' W 095°06'0 0.0
2015-Jan-31 08:06N 29°45' W 095°06'0 0.0
2015-Jan-31 07:31N 29°45' W 095°06'0 0.0
2015-Jan-31 06:31N 29°45' W 095°06'0 0.0
2015-Jan-31 05:33N 29°45' W 095°06'2 2.0
2015-Jan-31 04:33N 29°44' W 095°08'0 0.0
2015-Jan-31 03:33N 29°44' W 095°08'0 0.0
2015-Jan-31 02:32N 29°44' W 095°08'0 0.0
2015-Jan-31 01:32N 29°44' W 095°08'0 0.0
2015-Jan-31 00:30N 29°44' W 095°08'0 0.0
2015-Jan-30 23:32N 29°44' W 095°08'0 0.0
2015-Jan-30 22:25N 29°44' W 095°08'0 0.0
2015-Jan-30 21:32N 29°44' W 095°08'0 0.0
2015-Jan-30 20:19N 29°44' W 095°08'0 0.0
2015-Jan-30 19:25N 29°44' W 095°08'0 0.0
2015-Jan-30 18:10N 29°44' W 095°08'0 0.0
2015-Jan-30 17:08N 29°44' W 095°08'0 0.0
2015-Jan-30 16:32N 29°44' W 095°08'0 0.0
2015-Jan-30 15:32N 29°44' W 095°08'0 0.0
2015-Jan-30 14:29N 29°44' W 095°08'0 0.0
2015-Jan-30 13:31N 29°44' W 095°08'0 0.0
2015-Jan-30 12:24N 29°44' W 095°08'0 0.0
2015-Jan-30 11:06N 29°44' W 095°08'0 0.1
2015-Jan-30 07:33N 29°44' W 095°08'5 5.3
2015-Jan-30 06:33N 29°44' W 095°01'9 9.1
2015-Jan-30 05:33N 29°36' W 094°57'1313.0
2015-Jan-30 04:33N 29°24' W 094°49'14 0.8
2015-Jan-29 12:08N 29°19' W 094°35'0 0.0
2015-Jan-29 11:32N 29°19' W 094°35'0 0.0
2015-Jan-29 10:17N 29°19' W 094°35'0 0.0
2015-Jan-29 09:33N 29°19' W 094°35'0 0.0
2015-Jan-29 07:28N 29°19' W 094°35'0 0.0
2015-Jan-29 06:30N 29°19' W 094°35'0 0.0
2015-Jan-29 05:30N 29°19' W 094°35'0 0.0
2015-Jan-29 04:23N 29°19' W 094°35'0 0.0
2015-Jan-29 03:32N 29°19' W 094°35'0 0.0
2015-Jan-29 01:33N 29°19' W 094°35'0 0.0
2015-Jan-29 00:25N 29°19' W 094°35'0 0.0
2015-Jan-28 23:19N 29°19' W 094°35'0 0.0
2015-Jan-28 22:14N 29°19' W 094°35'0 0.0
2015-Jan-28 19:18N 29°19' W 094°35'0 0.0
2015-Jan-28 18:32N 29°19' W 094°35'0 0.0
2015-Jan-28 17:15N 29°19' W 094°35'0 0.0
2015-Jan-28 15:24N 29°19' W 094°35'0 0.0
2015-Jan-28 14:29N 29°19' W 094°35'0 0.0
2015-Jan-28 13:30N 29°19' W 094°35'0 0.0
2015-Jan-27 14:31N 29°19' W 094°34'1 0.2
2015-Jan-27 09:25N 29°18' W 094°35'1212.6
2015-Jan-27 08:26N 29°23' W 094°48'1213.3
2015-Jan-27 07:33N 29°33' W 094°55'7 6.8
2015-Jan-27 06:33N 29°37' W 095°01'0 0.0
2015-Jan-27 05:32N 29°37' W 095°01'0 0.0
2015-Jan-27 04:31N 29°37' W 095°01'0 0.0
2015-Jan-27 03:31N 29°37' W 095°01'0 0.0
2015-Jan-27 02:32N 29°37' W 095°01'0 0.0
2015-Jan-27 01:33N 29°37' W 095°01'0 0.0
2015-Jan-27 00:33N 29°37' W 095°01'0 0.0
2015-Jan-26 23:33N 29°37' W 095°01'0 0.0
2015-Jan-26 22:32N 29°37' W 095°01'0 0.0
2015-Jan-26 21:32N 29°37' W 095°01'0 0.0
2015-Jan-26 20:32N 29°37' W 095°01'0 0.0
2015-Jan-26 19:32N 29°37' W 095°01'0 0.0
2015-Jan-26 18:31N 29°37' W 095°01'0 0.0
2015-Jan-26 17:33N 29°37' W 095°01'0 0.0
2015-Jan-26 16:33N 29°37' W 095°01'0 0.0
2015-Jan-26 15:33N 29°37' W 095°01'0 0.0
2015-Jan-26 14:33N 29°37' W 095°01'0 0.0
2015-Jan-26 13:30N 29°37' W 095°01'0 0.0
2015-Jan-26 12:33N 29°37' W 095°01'0 0.0
2015-Jan-26 11:33N 29°37' W 095°01'4 4.4
2015-Jan-26 10:33N 29°35' W 094°56'1111.3
2015-Jan-26 09:33N 29°26' W 094°50'10 0.3
2015-Jan-24 21:25N 29°20' W 094°40'1113.0
2015-Jan-24 20:33N 29°27' W 094°51'1313.3
2015-Jan-24 19:33N 29°38' W 094°58'10 9.5
2015-Jan-24 18:33N 29°46' W 095°05'1 1.4
2015-Jan-24 17:32N 29°45' W 095°06'  

Dump ship's entire track history